createdAt,value
2019-04-23T00:00:03.684Z,12.41
2019-04-23T00:02:54.992Z,12.36
2019-04-23T00:05:33.610Z,12.28
2019-04-23T00:12:49.533Z,11.97
2019-04-23T00:15:30.819Z,11.91
2019-04-23T00:20:14.385Z,11.73
2019-04-23T00:22:59.866Z,11.64
2019-04-23T00:28:26.694Z,11.61
2019-04-23T00:35:51.557Z,11.44
2019-04-23T00:41:02.857Z,11.61
2019-04-23T00:45:55.010Z,11.53
2019-04-23T00:48:23.647Z,11.49
2019-04-23T00:55:46.568Z,11.43
2019-04-23T00:58:25.045Z,11.45
2019-04-23T01:03:12.258Z,11.41
2019-04-23T01:08:11.776Z,11.47
2019-04-23T01:10:50.818Z,11.44
2019-04-23T01:13:19.348Z,11.38
2019-04-23T01:18:20.328Z,11.25
2019-04-23T01:22:54.905Z,11.09
2019-04-23T01:25:36.413Z,11.03
2019-04-23T01:28:28.244Z,10.97
2019-04-23T01:30:59.133Z,10.87
2019-04-23T01:33:29.711Z,10.83
2019-04-23T01:36:03.188Z,10.81
2019-04-23T01:38:27.954Z,10.77
2019-04-23T01:40:47.511Z,10.71
2019-04-23T01:43:33.635Z,10.71
2019-04-23T01:45:47.916Z,10.67
2019-04-23T01:48:12.779Z,10.63
2019-04-23T01:50:55.018Z,10.68
2019-04-23T01:53:23.293Z,10.70
2019-04-23T01:55:46.999Z,10.72
2019-04-23T01:58:31.837Z,10.69
2019-04-23T02:00:47.550Z,10.62
2019-04-23T02:03:15.255Z,10.54
2019-04-23T02:13:16.829Z,10.24
2019-04-23T02:15:44.066Z,10.18
2019-04-23T02:18:13.419Z,10.15
2019-04-23T02:20:42.935Z,10.14
2019-04-23T02:26:02.754Z,10.09
2019-04-23T02:28:38.830Z,10.07
2019-04-23T02:31:39.232Z,10.06
2019-04-23T02:39:53.670Z,9.90
2019-04-23T02:42:19.171Z,9.75
2019-04-23T02:44:35.065Z,9.74
2019-04-23T02:52:49.644Z,9.68
2019-04-23T02:55:21.496Z,9.65
2019-04-23T02:57:44.042Z,9.65
2019-04-23T03:05:31.966Z,9.55
2019-04-23T03:12:46.882Z,9.61
2019-04-23T03:15:50.115Z,9.62
2019-04-23T03:21:09.082Z,9.55
2019-04-23T03:28:35.818Z,9.43
2019-04-23T03:48:34.027Z,9.53
2019-04-23T03:50:43.480Z,9.48
2019-04-23T03:53:34.657Z,9.49
2019-04-23T03:55:54.504Z,9.46
2019-04-23T03:58:34.256Z,9.49
2019-04-23T04:06:00.154Z,9.46
2019-04-23T04:08:29.171Z,9.47
2019-04-23T04:13:22.590Z,9.50
2019-04-23T04:18:34.765Z,9.55
2019-04-23T04:23:24.193Z,9.49
2019-04-23T04:28:17.870Z,9.51
2019-04-23T04:33:29.816Z,9.47
2019-04-23T04:35:58.260Z,9.44
2019-04-23T04:38:38.518Z,9.48
2019-04-23T04:40:54.803Z,9.48
2019-04-23T04:43:31.750Z,9.51
2019-04-23T04:46:05.324Z,9.54
2019-04-23T04:48:16.419Z,9.53
2019-04-23T04:51:00.424Z,9.51
2019-04-23T04:53:33.412Z,9.50
2019-04-23T05:08:23.862Z,9.68
2019-04-23T05:10:52.018Z,9.76
2019-04-23T05:15:45.036Z,9.96
2019-04-23T05:18:28.947Z,10.06
2019-04-23T05:21:08.235Z,10.18
2019-04-23T05:23:25.400Z,10.30
2019-04-23T05:25:51.447Z,10.41
2019-04-23T05:28:24.974Z,10.52
2019-04-23T05:30:52.095Z,10.66
2019-04-23T05:33:21.911Z,10.76
2019-04-23T05:36:06.126Z,10.89
2019-04-23T05:38:29.107Z,11.04
2019-04-23T05:43:20.950Z,11.20
2019-04-23T05:50:50.630Z,11.45
2019-04-23T05:53:11.474Z,11.57
2019-04-23T05:55:46.002Z,11.69
2019-04-23T05:58:20.033Z,11.82
2019-04-23T06:00:45.756Z,11.90
2019-04-23T06:03:11.270Z,11.98
2019-04-23T06:08:11.801Z,12.13
2019-04-23T06:10:39.625Z,12.24
2019-04-23T06:13:04.994Z,12.31
2019-04-23T06:15:40.250Z,12.37
2019-04-23T06:18:08.039Z,12.43
2019-04-23T06:20:45.384Z,12.48
2019-04-23T06:23:20.917Z,12.60
2019-04-23T06:28:08.187Z,12.76
2019-04-23T06:30:40.853Z,12.86
2019-04-23T06:33:06.104Z,12.96
2019-04-23T06:35:54.951Z,13.07
2019-04-23T06:40:33.654Z,13.23
2019-04-23T06:43:24.094Z,13.31
2019-04-23T06:45:49.544Z,13.38
2019-04-23T06:48:21.841Z,13.48
2019-04-23T06:50:56.214Z,13.53
2019-04-23T06:53:18.463Z,13.63
2019-04-23T06:55:49.461Z,13.71
2019-04-23T06:58:25.368Z,13.80
2019-04-23T07:00:48.010Z,13.87
2019-04-23T07:03:23.268Z,13.96
2019-04-23T07:11:16.846Z,14.32
2019-04-23T07:13:46.538Z,14.51
2019-04-23T07:16:04.590Z,14.63
2019-04-23T07:18:39.636Z,14.78
2019-04-23T07:21:11.762Z,14.88
2019-04-23T07:23:37.611Z,14.99
2019-04-23T07:26:13.953Z,15.10
2019-04-23T07:28:36.337Z,15.07
2019-04-23T07:31:11.999Z,15.03
2019-04-23T07:33:35.066Z,15.04
2019-04-23T07:36:00.017Z,15.06
2019-04-23T07:38:50.514Z,15.15
2019-04-23T07:41:39.708Z,15.15
2019-04-23T07:44:24.909Z,15.23
2019-04-23T07:47:23.274Z,15.33
2019-04-23T07:49:37.904Z,15.35
2019-04-23T07:52:13.360Z,15.42
2019-04-23T07:54:38.792Z,15.52
2019-04-23T07:57:12.153Z,15.56
2019-04-23T07:59:33.329Z,15.62
2019-04-23T08:02:08.122Z,15.78
2019-04-23T08:04:35.236Z,15.98
2019-04-23T08:07:00.462Z,16.02
2019-04-23T08:09:37.666Z,15.97
2019-04-23T08:11:56.266Z,16.06
2019-04-23T08:14:40.872Z,16.14
2019-04-23T08:17:14.394Z,16.06
2019-04-23T08:19:49.915Z,16.08
2019-04-23T08:22:17.552Z,16.13
2019-04-23T08:24:50.534Z,16.22
2019-04-23T08:29:43.820Z,16.27
2019-04-23T08:34:54.553Z,16.37
2019-04-23T08:37:26.911Z,16.44
2019-04-23T08:39:47.145Z,16.56
2019-04-23T08:48:00.705Z,16.91
2019-04-23T08:50:09.211Z,16.99
2019-04-23T08:52:38.291Z,17.13
2019-04-23T08:55:08.675Z,17.22
2019-04-23T08:57:32.517Z,17.26
2019-04-23T09:00:04.328Z,17.32
2019-04-23T09:02:47.816Z,17.42
2019-04-23T09:05:08.837Z,17.59
2019-04-23T09:07:55.241Z,17.70
2019-04-23T09:10:07.705Z,17.79
2019-04-23T09:12:35.096Z,17.75
2019-04-23T09:15:03.903Z,17.95
2019-04-23T09:17:34.860Z,17.90
2019-04-23T09:25:06.559Z,18.01
2019-04-23T09:27:26.168Z,18.12
2019-04-23T09:32:24.829Z,18.19
2019-04-23T09:37:53.384Z,18.50
2019-04-23T09:41:11.578Z,18.49
2019-04-23T09:43:46.022Z,18.51
2019-04-23T09:46:30.062Z,18.63
2019-04-23T09:49:06.328Z,18.64
2019-04-23T09:51:32.839Z,18.70
2019-04-23T09:54:04.421Z,18.71
2019-04-23T09:56:32.819Z,18.76
2019-04-23T09:59:01.234Z,18.76
2019-04-23T10:03:44.653Z,18.95
2019-04-23T10:06:09.677Z,18.93
2019-04-23T10:08:36.524Z,18.96
2019-04-23T10:10:59.786Z,18.93
2019-04-23T10:13:27.263Z,18.83
2019-04-23T10:15:55.571Z,18.68
2019-04-23T10:18:24.465Z,18.84
2019-04-23T10:20:52.382Z,18.81
2019-04-23T10:23:21.283Z,18.96
2019-04-23T10:25:49.914Z,19.16
2019-04-23T10:28:27.408Z,19.42
2019-04-23T10:30:54.798Z,19.55
2019-04-23T10:33:23.427Z,19.63
2019-04-23T10:36:03.254Z,19.79
2019-04-23T10:38:28.626Z,19.87
2019-04-23T10:40:57.970Z,20.08
2019-04-23T10:43:25.498Z,20.14
2019-04-23T10:46:56.780Z,20.32
2019-04-23T10:50:05.131Z,20.33
2019-04-23T10:54:46.926Z,20.33
2019-04-23T11:00:09.853Z,20.43
2019-04-23T11:05:00.390Z,20.52
2019-04-23T11:10:25.814Z,20.41
2019-04-23T11:13:19.434Z,20.38
2019-04-23T11:18:02.952Z,20.65
2019-04-23T11:20:43.811Z,20.99
2019-04-23T11:23:00.798Z,21.24
2019-04-23T11:25:37.938Z,21.19
2019-04-23T11:28:13.561Z,21.22
2019-04-23T11:30:57.310Z,21.51
2019-04-23T11:33:30.057Z,21.63
2019-04-23T11:36:22.399Z,21.75
2019-04-23T11:38:48.649Z,21.93
2019-04-23T11:41:23.323Z,21.99
2019-04-23T11:43:29.235Z,22.19
2019-04-23T11:48:47.996Z,22.59
2019-04-23T11:51:26.755Z,22.57
2019-04-23T11:53:26.069Z,22.74
2019-04-23T11:55:55.733Z,22.88
2019-04-23T12:01:40.892Z,23.50
2019-04-23T12:04:07.129Z,23.79
2019-04-23T12:06:39.076Z,23.96
2019-04-23T12:09:40.128Z,24.22
2019-04-23T12:22:23.600Z,24.41
2019-04-23T12:25:04.327Z,24.65
2019-04-23T12:37:48.712Z,25.35
2019-04-23T12:40:32.413Z,25.69
2019-04-23T12:42:55.151Z,25.78
2019-04-23T12:45:30.221Z,25.95
2019-04-23T12:47:58.481Z,25.96
2019-04-23T12:52:47.200Z,26.23
2019-04-23T12:55:23.380Z,26.51
2019-04-23T13:00:20.839Z,27.00
2019-04-23T13:05:25.988Z,27.38
2019-04-23T13:10:22.570Z,27.62
2019-04-23T13:12:52.948Z,27.68
2019-04-23T13:15:15.856Z,27.65
2019-04-23T13:20:21.697Z,27.85
2019-04-23T13:22:49.469Z,28.22
2019-04-23T13:28:33.723Z,27.50
2019-04-23T13:33:28.260Z,27.51
2019-04-23T13:40:55.615Z,28.23
2019-04-23T13:43:34.748Z,28.30
2019-04-23T13:53:28.508Z,27.79
2019-04-23T13:55:42.881Z,27.53
2019-04-23T13:58:29.571Z,27.66
2019-04-23T14:00:52.375Z,27.95
2019-04-23T14:03:26.189Z,27.95
2019-04-23T14:06:16.204Z,27.10
2019-04-23T14:11:11.046Z,26.99
2019-04-23T14:16:11.644Z,26.64
2019-04-23T14:18:52.183Z,26.79
2019-04-23T14:21:14.115Z,26.71
2019-04-23T14:23:54.080Z,26.53
2019-04-23T14:28:36.952Z,26.16
2019-04-23T14:31:04.833Z,25.82
2019-04-23T14:36:00.886Z,25.33
2019-04-23T14:38:33.841Z,25.11
2019-04-23T14:43:34.892Z,24.30
2019-04-23T14:49:01.313Z,23.99
2019-04-23T14:53:52.073Z,23.94
2019-04-23T14:58:59.927Z,24.39
2019-04-23T15:01:33.591Z,24.51
2019-04-23T15:03:46.840Z,24.67
2019-04-23T15:08:59.209Z,24.78
2019-04-23T15:13:44.683Z,24.29
2019-04-23T15:16:17.387Z,24.13
2019-04-23T15:21:46.747Z,23.97
2019-04-23T15:27:29.576Z,23.50
2019-04-23T15:28:43.635Z,23.56
2019-04-23T15:31:34.881Z,23.65
2019-04-23T15:36:41.262Z,23.58
2019-04-23T15:41:32.110Z,23.39
2019-04-23T15:44:05.607Z,23.28
2019-04-23T15:53:59.223Z,22.90
2019-04-23T15:59:02.546Z,22.73
2019-04-23T16:01:29.063Z,22.75
2019-04-23T16:03:22.714Z,22.73
2019-04-23T16:05:51.024Z,22.70
2019-04-23T16:09:00.965Z,22.64
2019-04-23T16:11:33.666Z,22.58
2019-04-23T16:21:35.873Z,22.27
2019-04-23T16:24:02.660Z,22.21
2019-04-23T16:26:32.506Z,22.12
2019-04-23T16:29:16.271Z,22.08
2019-04-23T16:31:27.629Z,22.07
2019-04-23T16:34:22.491Z,22.08
2019-04-23T16:36:43.786Z,22.06
2019-04-23T16:39:10.704Z,22.04
2019-04-23T16:41:51.821Z,21.93
2019-04-23T16:44:46.705Z,21.88
2019-04-23T16:46:48.517Z,21.84
2019-04-23T16:49:20.036Z,21.78
2019-04-23T16:51:32.192Z,21.74
2019-04-23T16:54:19.602Z,21.70
2019-04-23T16:56:55.507Z,21.58
2019-04-23T16:59:15.508Z,21.51
2019-04-23T17:01:34.521Z,21.43
2019-04-23T17:04:15.786Z,21.37
2019-04-23T17:06:36.633Z,21.33
2019-04-23T17:09:07.013Z,21.31
2019-04-23T17:14:09.129Z,21.16
2019-04-23T17:16:38.116Z,21.12
2019-04-23T17:19:11.306Z,21.00
2019-04-23T17:24:15.093Z,20.82
2019-04-23T17:26:58.473Z,20.72
2019-04-23T17:29:21.744Z,20.66
2019-04-23T17:31:49.038Z,20.57
2019-04-23T17:34:30.411Z,20.55
2019-04-23T17:37:07.062Z,20.42
2019-04-23T17:39:57.892Z,20.29
2019-04-23T17:47:58.964Z,19.88
2019-04-23T17:55:21.719Z,19.49
2019-04-23T17:57:55.934Z,19.41
2019-04-23T18:00:27.169Z,19.34
2019-04-23T18:07:59.308Z,19.00
2019-04-23T18:10:24.968Z,18.87
2019-04-23T18:12:51.821Z,18.73
2019-04-23T18:20:45.980Z,18.25
2019-04-23T18:23:09.755Z,18.09
2019-04-23T18:25:43.300Z,17.90
2019-04-23T18:28:08.446Z,17.78
2019-04-23T18:31:05.879Z,17.64
2019-04-23T18:36:08.084Z,17.33
2019-04-23T18:38:39.972Z,17.17
2019-04-23T18:43:35.710Z,16.91
2019-04-23T18:46:08.966Z,16.81
2019-04-23T18:48:44.227Z,16.70
2019-04-23T18:53:45.613Z,16.45
2019-04-23T18:58:44.538Z,16.30
2019-04-23T19:01:05.405Z,16.24
2019-04-23T19:04:17.231Z,16.16
2019-04-23T19:06:40.013Z,16.05
2019-04-23T19:09:23.427Z,15.93
2019-04-23T19:12:14.646Z,15.81
2019-04-23T19:19:48.060Z,15.53
2019-04-23T19:22:30.605Z,15.47
2019-04-23T19:24:39.083Z,15.44
2019-04-23T19:27:19.531Z,15.37
2019-04-23T19:29:43.873Z,15.32
2019-04-23T19:32:00.486Z,15.28
2019-04-23T19:39:40.223Z,15.12
2019-04-23T19:42:03.620Z,15.04
2019-04-23T19:52:00.924Z,14.81
2019-04-23T19:59:40.974Z,14.65
2019-04-23T20:02:02.072Z,14.61
2019-04-23T20:04:29.106Z,14.59
2019-04-23T20:07:16.029Z,14.53
2019-04-23T20:12:00.434Z,14.32
2019-04-23T20:14:32.404Z,14.22
2019-04-23T20:17:21.411Z,14.17
2019-04-23T20:19:40.834Z,14.14
2019-04-23T20:27:09.256Z,14.00
2019-04-23T20:30:23.461Z,13.96
2019-04-23T20:31:39.361Z,14.04
2019-04-23T20:35:16.545Z,13.83
2019-04-23T20:40:18.651Z,13.77
2019-04-23T20:42:48.144Z,13.76
2019-04-23T20:45:27.381Z,13.76
2019-04-23T20:47:46.736Z,13.76
2019-04-23T20:50:00.986Z,13.81
2019-04-23T20:52:35.407Z,13.85
2019-04-23T20:55:08.615Z,13.89
2019-04-23T20:57:48.483Z,13.90
2019-04-23T21:00:34.028Z,13.94
2019-04-23T21:05:22.753Z,14.11
2019-04-23T21:10:37.237Z,14.22
2019-04-23T21:18:10.203Z,14.40
2019-04-23T21:23:06.622Z,14.49
2019-04-23T21:28:17.930Z,14.52
2019-04-23T21:31:11.455Z,14.50
2019-04-23T21:33:43.883Z,14.49
2019-04-23T21:36:38.888Z,14.54
2019-04-23T21:39:38.577Z,14.60
2019-04-23T21:42:09.669Z,14.65
2019-04-23T21:45:04.804Z,14.65
2019-04-23T21:50:11.356Z,14.75
2019-04-23T21:52:36.114Z,14.79
2019-04-23T21:55:02.380Z,14.81
2019-04-23T21:57:35.401Z,14.87
2019-04-23T21:59:59.169Z,14.91
2019-04-23T22:02:27.614Z,14.93
2019-04-23T22:05:16.844Z,14.98
2019-04-23T22:07:42.022Z,14.99
2019-04-23T22:09:57.437Z,14.99
2019-04-23T22:12:23.065Z,14.96
2019-04-23T22:14:50.671Z,14.97
2019-04-23T22:17:25.953Z,15.04
2019-04-23T22:20:03.105Z,15.08
2019-04-23T22:22:28.577Z,15.08
2019-04-23T22:24:54.586Z,15.14
2019-04-23T22:27:16.745Z,15.18
2019-04-23T22:32:23.670Z,15.23
2019-04-23T22:34:55.997Z,15.26
2019-04-23T22:37:14.861Z,15.28
2019-04-23T22:39:47.001Z,15.30
2019-04-23T22:45:07.529Z,15.33
2019-04-23T22:49:50.204Z,15.33
2019-04-23T22:52:26.538Z,15.32
2019-04-23T22:54:49.434Z,15.32
2019-04-23T22:57:11.588Z,15.29
2019-04-23T23:00:04.411Z,15.27
2019-04-23T23:02:54.561Z,15.23
2019-04-23T23:08:10.728Z,15.09
2019-04-23T23:10:27.973Z,15.05
2019-04-23T23:13:04.094Z,14.99
2019-04-23T23:15:36.086Z,15.01
2019-04-23T23:18:09.999Z,14.99
2019-04-23T23:23:06.367Z,14.93
2019-04-23T23:28:02.247Z,14.92
2019-04-23T23:32:55.607Z,14.83
2019-04-23T23:37:56.575Z,14.77
2019-04-23T23:40:53.702Z,14.76
2019-04-23T23:45:53.122Z,14.70
2019-04-23T23:48:08.067Z,14.72
2019-04-23T23:50:44.964Z,14.70
2019-04-23T23:55:46.869Z,14.61
